createdAt,value
2023-11-13T00:08:06.126Z,99270.06
2023-11-13T00:16:27.616Z,99271.26
2023-11-13T00:24:49.413Z,99265.87
2023-11-13T00:33:11.131Z,99261.25
2023-11-13T00:41:33.904Z,99265.95
2023-11-13T00:49:55.402Z,99287.09
2023-11-13T00:58:18.279Z,99296.97
2023-11-13T01:06:39.738Z,99293.90
2023-11-13T01:15:02.567Z,99295.12
2023-11-13T01:23:25.206Z,99297.68
2023-11-13T01:31:47.001Z,99297.88
2023-11-13T01:40:10.087Z,99297.88
2023-11-13T01:48:31.794Z,99295.80
2023-11-13T01:56:56.306Z,99301.65
2023-11-13T02:05:18.126Z,99300.40
2023-11-13T02:13:39.978Z,99317.02
2023-11-13T02:22:01.716Z,99314.89
2023-11-13T02:30:23.950Z,99315.94
2023-11-13T02:38:47.828Z,99316.72
2023-11-13T02:47:09.638Z,99313.27
2023-11-13T02:55:31.760Z,99316.86
2023-11-13T03:03:53.648Z,99320.27
2023-11-13T03:12:15.326Z,99326.17
2023-11-13T03:20:36.870Z,99329.20
2023-11-13T03:28:58.417Z,99330.15
2023-11-13T03:37:19.983Z,99336.45
2023-11-13T03:45:41.545Z,99330.62
2023-11-13T03:54:03.161Z,99329.92
2023-11-13T04:02:28.948Z,99332.50
2023-11-13T04:10:50.789Z,99334.29
2023-11-13T04:19:13.168Z,99335.34
2023-11-13T04:27:34.776Z,99339.70
2023-11-13T04:35:58.406Z,99328.40
2023-11-13T04:44:19.941Z,99327.91
2023-11-13T04:52:41.830Z,99329.77
2023-11-13T05:01:03.574Z,99335.48
2023-11-13T05:09:27.120Z,99333.54
2023-11-13T05:17:48.850Z,99339.42
2023-11-13T05:26:10.442Z,99353.73
2023-11-13T05:34:32.111Z,99359.15
2023-11-13T05:42:54.685Z,99360.00
2023-11-13T05:51:16.629Z,99369.55
2023-11-13T05:59:38.194Z,99379.89
2023-11-13T06:07:59.750Z,99380.22
2023-11-13T06:16:21.485Z,99380.95
2023-11-13T06:24:43.215Z,99381.70
2023-11-13T06:33:05.066Z,99388.77
2023-11-13T06:41:26.552Z,99402.11
2023-11-13T06:49:49.448Z,99404.70
2023-11-13T06:58:11.569Z,99407.07
2023-11-13T07:06:33.069Z,99406.54
2023-11-13T07:14:56.051Z,99405.70
2023-11-13T07:23:18.001Z,99408.81
2023-11-13T07:31:39.649Z,99412.44
2023-11-13T07:40:01.455Z,99409.61
2023-11-13T07:48:26.030Z,99416.77
2023-11-13T07:56:48.491Z,99416.15
2023-11-13T08:05:13.574Z,99418.41
2023-11-13T08:13:35.735Z,99421.80
2023-11-13T08:21:57.555Z,99422.77
2023-11-13T08:30:23.722Z,99429.99
2023-11-13T08:38:45.688Z,99426.71
2023-11-13T08:47:07.338Z,99431.61
2023-11-13T08:55:29.087Z,99428.86
2023-11-13T09:03:50.916Z,99421.56
2023-11-13T09:12:15.323Z,99425.05
2023-11-13T09:20:42.509Z,99420.36
2023-11-13T09:29:04.085Z,99420.25
2023-11-13T09:37:25.586Z,99420.29
2023-11-13T09:45:51.804Z,99419.42
2023-11-13T09:54:14.098Z,99410.40
2023-11-13T10:02:35.874Z,99401.54
2023-11-13T10:10:57.719Z,99395.17
2023-11-13T10:19:19.194Z,99396.36
2023-11-13T10:27:46.833Z,99403.40
2023-11-13T10:36:17.793Z,99406.55
2023-11-13T10:44:39.477Z,99397.90
2023-11-13T10:53:02.395Z,99401.33
2023-11-13T11:01:26.113Z,99403.47
2023-11-13T11:09:47.947Z,99406.20
2023-11-13T11:18:40.678Z,99395.69
2023-11-13T11:27:04.279Z,99387.17
2023-11-13T11:35:29.561Z,99381.27
2023-11-13T11:43:51.131Z,99372.52
2023-11-13T11:52:13.284Z,99357.89
2023-11-13T12:00:34.908Z,99355.07
2023-11-13T12:08:56.422Z,99352.65
2023-11-13T12:17:20.478Z,99355.81
2023-11-13T12:25:42.409Z,99354.11
2023-11-13T12:34:04.697Z,99351.77
2023-11-13T12:42:27.468Z,99346.13
2023-11-13T12:50:49.290Z,99328.70
2023-11-13T12:59:12.814Z,99328.94
2023-11-13T13:07:34.429Z,99337.11
2023-11-13T13:15:55.966Z,99339.55
2023-11-13T13:24:17.816Z,99339.93
2023-11-13T13:32:39.386Z,99344.84
2023-11-13T13:41:01.654Z,99345.94
2023-11-13T13:49:24.901Z,99345.16
2023-11-13T13:57:46.768Z,99337.16
2023-11-13T14:06:12.998Z,99338.16
2023-11-13T14:14:35.192Z,99335.38
2023-11-13T14:22:59.904Z,99337.47
2023-11-13T14:31:24.757Z,99341.48
2023-11-13T14:39:46.423Z,99344.68
2023-11-13T14:48:08.571Z,99355.30
2023-11-13T14:56:30.277Z,99362.80
2023-11-13T15:04:51.923Z,99357.50
2023-11-13T15:13:14.914Z,99358.41
2023-11-13T15:21:36.479Z,99360.07
2023-11-13T15:29:58.041Z,99356.52
2023-11-13T15:38:19.733Z,99349.11
2023-11-13T15:46:42.955Z,99353.02
2023-11-13T15:55:05.708Z,99351.00
2023-11-13T16:03:33.492Z,99352.67
2023-11-13T16:12:02.193Z,99356.20
2023-11-13T16:20:25.056Z,99356.02
2023-11-13T16:28:46.746Z,99344.33
2023-11-13T16:37:09.195Z,99331.21
2023-11-13T16:45:32.406Z,99317.78
2023-11-13T16:53:54.992Z,99314.22
2023-11-13T17:02:17.559Z,99314.19
2023-11-13T17:10:40.611Z,99304.70
2023-11-13T17:19:03.045Z,99293.70
2023-11-13T17:27:25.643Z,99290.73
2023-11-13T17:35:48.488Z,99296.32
2023-11-13T17:44:10.145Z,99306.89
2023-11-13T17:52:32.321Z,99308.06
2023-11-13T18:00:54.867Z,99307.40
2023-11-13T18:09:17.866Z,99299.19
2023-11-13T18:17:41.847Z,99287.11
2023-11-13T18:26:05.226Z,99277.35
2023-11-13T18:34:27.017Z,99263.79
2023-11-13T18:42:49.455Z,99256.95
2023-11-13T18:51:17.115Z,99248.39
2023-11-13T18:59:39.046Z,99232.48
2023-11-13T19:08:01.086Z,99211.04
2023-11-13T19:16:28.079Z,99203.15
2023-11-13T19:24:49.891Z,99204.71
2023-11-13T19:33:16.053Z,99198.48
2023-11-13T19:41:38.425Z,99180.33
2023-11-13T19:50:00.647Z,99168.10
2023-11-13T19:58:23.472Z,99162.32
2023-11-13T20:06:47.580Z,99150.89
2023-11-13T20:15:11.519Z,99146.06
2023-11-13T20:23:35.138Z,99131.97
2023-11-13T20:31:57.455Z,99139.64
2023-11-13T20:40:19.068Z,99136.41
2023-11-13T20:48:40.934Z,99117.89
2023-11-13T20:57:05.369Z,99092.11
2023-11-13T21:05:30.513Z,99062.27
2023-11-13T21:13:53.193Z,99061.62
2023-11-13T21:22:14.844Z,99075.39
2023-11-13T21:30:37.666Z,99045.55
2023-11-13T21:38:59.367Z,99012.17
2023-11-13T21:47:23.211Z,98977.37
2023-11-13T21:55:45.755Z,98983.71
2023-11-13T22:04:08.258Z,98972.21
2023-11-13T22:12:33.794Z,98941.48
2023-11-13T22:21:01.885Z,98903.88
2023-11-13T22:29:26.058Z,98885.89
2023-11-13T22:37:47.931Z,98887.14
2023-11-13T22:46:10.315Z,98868.16
2023-11-13T22:54:35.755Z,98820.81
2023-11-13T23:02:57.849Z,98811.31
2023-11-13T23:11:20.271Z,98794.92
2023-11-13T23:19:42.127Z,98790.17
2023-11-13T23:28:03.874Z,98760.39
2023-11-13T23:36:25.840Z,98768.55
2023-11-13T23:44:47.968Z,98782.95
2023-11-13T23:53:10.723Z,98750.56
